createdAt,value
2019-01-14T00:00:36.001Z,16.30
2019-01-14T00:03:04.485Z,16.30
2019-01-14T00:05:33.297Z,16.30
2019-01-14T00:08:02.024Z,16.30
2019-01-14T00:10:32.900Z,16.30
2019-01-14T00:13:01.180Z,16.30
2019-01-14T00:15:29.846Z,16.30
2019-01-14T00:17:58.333Z,16.30
2019-01-14T00:20:26.765Z,16.30
2019-01-14T00:22:58.276Z,16.30
2019-01-14T00:25:26.788Z,16.30
2019-01-14T00:27:55.475Z,16.30
2019-01-14T00:30:24.197Z,16.30
2019-01-14T00:32:52.327Z,16.30
2019-01-14T00:35:22.977Z,16.30
2019-01-14T00:37:51.096Z,16.30
2019-01-14T00:40:19.531Z,16.30
2019-01-14T00:42:50.021Z,16.30
2019-01-14T00:45:18.006Z,16.30
2019-01-14T00:47:46.546Z,16.30
2019-01-14T00:50:15.702Z,16.20
2019-01-14T00:52:44.088Z,16.20
2019-01-14T00:55:12.667Z,16.20
2019-01-14T00:57:44.422Z,16.30
2019-01-14T01:00:15.439Z,16.30
2019-01-14T01:02:45.603Z,16.20
2019-01-14T01:05:16.831Z,16.30
2019-01-14T01:07:50.386Z,16.30
2019-01-14T01:10:26.407Z,16.20
2019-01-14T01:12:54.859Z,16.20
2019-01-14T01:15:25.815Z,16.20
2019-01-14T01:17:54.485Z,16.20
2019-01-14T01:20:23.349Z,16.20
2019-01-14T01:22:52.075Z,16.20
2019-01-14T01:25:20.636Z,16.20
2019-01-14T01:27:49.019Z,16.20
2019-01-14T01:30:17.992Z,16.30
2019-01-14T01:32:47.656Z,16.20
2019-01-14T01:35:16.038Z,16.20
2019-01-14T01:37:47.090Z,16.20
2019-01-14T01:40:16.757Z,16.20
2019-01-14T01:42:47.526Z,16.20
2019-01-14T01:45:18.932Z,16.20
2019-01-14T01:47:47.809Z,16.20
2019-01-14T01:50:22.251Z,16.20
2019-01-14T01:52:50.976Z,16.20
2019-01-14T01:55:19.326Z,16.30
2019-01-14T01:57:51.211Z,16.20
2019-01-14T02:00:24.540Z,16.20
2019-01-14T02:02:55.892Z,16.20
2019-01-14T02:05:26.593Z,16.20
2019-01-14T02:07:54.625Z,16.30
2019-01-14T02:10:23.126Z,16.30
2019-01-14T02:12:51.790Z,16.30
2019-01-14T02:15:20.679Z,16.20
2019-01-14T02:17:49.008Z,16.20
2019-01-14T02:20:17.726Z,16.20
2019-01-14T02:22:48.252Z,16.20
2019-01-14T02:25:17.098Z,16.20
2019-01-14T02:27:46.826Z,16.20
2019-01-14T02:30:16.274Z,16.20
2019-01-14T02:32:47.859Z,16.20
2019-01-14T02:35:16.276Z,16.20
2019-01-14T02:37:45.925Z,16.20
2019-01-14T02:40:15.398Z,16.30
2019-01-14T02:42:43.558Z,16.20
2019-01-14T02:45:11.991Z,16.20
2019-01-14T02:47:40.315Z,16.20
2019-01-14T02:50:08.877Z,16.20
2019-01-14T02:52:39.613Z,16.20
2019-01-14T02:55:07.711Z,16.20
2019-01-14T02:57:39.774Z,16.20
2019-01-14T03:00:09.769Z,16.20
2019-01-14T03:02:38.399Z,16.20
2019-01-14T03:05:06.447Z,16.20
2019-01-14T03:07:34.373Z,16.20
2019-01-14T03:10:02.373Z,16.20
2019-01-14T03:12:30.508Z,16.20
2019-01-14T03:14:58.540Z,16.20
2019-01-14T03:17:26.644Z,16.20
2019-01-14T03:19:54.565Z,16.20
2019-01-14T03:22:22.511Z,16.30
2019-01-14T03:24:50.539Z,16.20
2019-01-14T03:27:18.524Z,16.30
2019-01-14T03:29:46.447Z,16.20
2019-01-14T03:32:14.754Z,16.20
2019-01-14T03:34:42.795Z,16.20
2019-01-14T03:37:10.796Z,16.20
2019-01-14T03:39:38.743Z,16.20
2019-01-14T03:42:06.717Z,16.20
2019-01-14T03:44:34.755Z,16.20
2019-01-14T03:47:02.787Z,16.20
2019-01-14T03:49:30.968Z,16.20
2019-01-14T03:51:58.975Z,16.20
2019-01-14T03:54:26.899Z,16.20
2019-01-14T03:56:54.823Z,16.20
2019-01-14T03:59:22.880Z,16.20
2019-01-14T04:01:50.976Z,16.20
2019-01-14T04:04:19.011Z,16.20
2019-01-14T04:06:46.938Z,16.20
2019-01-14T04:09:14.984Z,16.20
2019-01-14T04:11:42.993Z,16.20
2019-01-14T04:14:11.083Z,16.20
2019-01-14T04:16:39.049Z,16.20
2019-01-14T04:19:07.312Z,16.20
2019-01-14T04:21:35.564Z,16.20
2019-01-14T04:24:03.660Z,16.20
2019-01-14T04:26:31.911Z,16.20
2019-01-14T04:29:00.191Z,16.20
2019-01-14T04:31:28.251Z,16.20
2019-01-14T04:33:56.531Z,16.20
2019-01-14T04:36:24.492Z,16.20
2019-01-14T04:38:52.789Z,16.20
2019-01-14T04:41:20.758Z,16.20
2019-01-14T04:43:48.729Z,16.20
2019-01-14T04:46:16.659Z,16.20
2019-01-14T04:48:44.719Z,16.20
2019-01-14T04:51:12.758Z,16.20
2019-01-14T04:53:40.777Z,16.20
2019-01-14T04:56:08.841Z,16.20
2019-01-14T04:58:37.013Z,16.20
2019-01-14T05:01:04.963Z,16.20
2019-01-14T05:03:32.990Z,16.20
2019-01-14T05:06:01.053Z,16.20
2019-01-14T05:08:29.127Z,16.20
2019-01-14T05:10:57.066Z,16.20
2019-01-14T05:13:25.165Z,16.20
2019-01-14T05:15:53.204Z,16.30
2019-01-14T05:18:21.418Z,16.30
2019-01-14T05:31:54.117Z,16.50
2019-01-14T05:34:24.339Z,16.50
2019-01-14T05:36:52.449Z,16.50
2019-01-14T05:39:20.598Z,16.50
2019-01-14T05:42:00.909Z,16.50
2019-01-14T05:44:29.090Z,16.50
2019-01-14T05:46:57.131Z,16.60
2019-01-14T05:49:25.340Z,16.60
2019-01-14T05:51:59.384Z,16.60
2019-01-14T05:58:11.518Z,16.60
2019-01-14T06:00:50.811Z,16.60
2019-01-14T06:03:20.027Z,16.60
2019-01-14T06:05:49.309Z,16.60
2019-01-14T06:08:23.822Z,16.70
2019-01-14T06:10:52.076Z,16.70
2019-01-14T06:13:20.324Z,16.70
2019-01-14T06:15:50.203Z,16.70
2019-01-14T06:18:22.247Z,16.70
2019-01-14T06:20:51.118Z,16.70
2019-01-14T06:23:24.320Z,16.70
2019-01-14T06:26:09.584Z,16.70
2019-01-14T06:28:50.871Z,16.70
2019-01-14T06:31:34.103Z,16.80
2019-01-14T06:34:13.034Z,16.80
2019-01-14T06:36:41.472Z,16.80
2019-01-14T06:39:10.396Z,16.80
2019-01-14T06:41:38.737Z,16.80
2019-01-14T06:44:11.988Z,16.80
2019-01-14T06:46:39.897Z,16.80
2019-01-14T06:49:08.360Z,16.80
2019-01-14T06:51:36.554Z,16.80
2019-01-14T06:54:04.915Z,16.80
2019-01-14T06:56:33.428Z,16.80
2019-01-14T06:59:01.387Z,16.80
2019-01-14T07:01:29.529Z,16.80
2019-01-14T07:03:57.497Z,16.80
2019-01-14T07:06:25.684Z,16.80
2019-01-14T07:08:54.825Z,16.80
2019-01-14T07:11:23.162Z,16.90
2019-01-14T07:13:51.572Z,16.90
2019-01-14T07:16:19.689Z,16.90
2019-01-14T07:18:47.913Z,16.90
2019-01-14T07:21:17.013Z,16.70
2019-01-14T07:23:45.784Z,16.60
2019-01-14T07:26:18.600Z,16.70
2019-01-14T07:28:47.399Z,16.70
2019-01-14T07:31:15.887Z,16.80
2019-01-14T07:33:44.440Z,16.70
2019-01-14T07:36:12.569Z,16.80
2019-01-14T07:38:43.007Z,16.80
2019-01-14T07:41:11.096Z,16.80
2019-01-14T07:43:39.279Z,16.80
2019-01-14T07:46:07.348Z,16.90
2019-01-14T07:48:38.048Z,16.90
2019-01-14T07:51:09.432Z,16.90
2019-01-14T07:53:37.692Z,16.80
2019-01-14T07:56:05.783Z,16.90
2019-01-14T07:58:33.987Z,16.90
2019-01-14T08:01:07.627Z,16.90
2019-01-14T08:03:35.946Z,16.90
2019-01-14T08:06:04.147Z,16.90
2019-01-14T08:08:33.070Z,16.90
2019-01-14T08:11:02.077Z,16.90
2019-01-14T08:13:31.030Z,16.90
2019-01-14T08:15:59.784Z,16.90
2019-01-14T08:18:28.561Z,17.00
2019-01-14T08:20:58.958Z,16.90
2019-01-14T08:23:27.413Z,17.00
2019-01-14T08:25:59.647Z,16.90
2019-01-14T08:28:27.912Z,16.90
2019-01-14T08:30:56.446Z,16.90
2019-01-14T08:33:24.812Z,16.90
2019-01-14T08:35:53.385Z,16.90
2019-01-14T08:38:21.820Z,17.00
2019-01-14T08:40:51.570Z,16.90
2019-01-14T08:43:20.031Z,16.90
2019-01-14T08:45:48.539Z,16.90
2019-01-14T08:48:16.763Z,16.90
2019-01-14T08:50:44.869Z,17.00
2019-01-14T08:53:17.743Z,17.00
2019-01-14T08:55:58.634Z,17.00
2019-01-14T08:58:26.927Z,17.00
2019-01-14T09:00:57.482Z,17.00
2019-01-14T09:03:25.740Z,17.00
2019-01-14T09:05:53.925Z,17.00
2019-01-14T09:08:28.470Z,17.00
2019-01-14T09:10:51.815Z,17.00
2019-01-14T09:13:19.935Z,17.00
2019-01-14T09:15:48.078Z,17.00
2019-01-14T09:18:16.000Z,17.00
2019-01-14T09:20:44.045Z,17.00
2019-01-14T09:23:11.968Z,17.00
2019-01-14T09:25:40.258Z,17.00
2019-01-14T09:28:08.517Z,17.00
2019-01-14T09:30:36.541Z,17.00
2019-01-14T09:33:04.630Z,17.00
2019-01-14T09:35:32.686Z,17.00
2019-01-14T09:38:00.769Z,17.00
2019-01-14T09:40:28.923Z,17.00
2019-01-14T09:42:56.933Z,17.00
2019-01-14T09:45:24.891Z,17.00
2019-01-14T09:47:52.948Z,17.00
2019-01-14T09:50:20.861Z,17.00
2019-01-14T09:52:49.163Z,17.00
2019-01-14T09:55:18.081Z,17.10
2019-01-14T09:57:48.525Z,17.00
2019-01-14T10:00:16.839Z,17.00
2019-01-14T10:02:45.105Z,17.00
2019-01-14T10:05:13.615Z,17.10
2019-01-14T10:07:41.789Z,17.10
2019-01-14T10:10:10.861Z,17.00
2019-01-14T10:12:39.022Z,17.00
2019-01-14T10:15:08.145Z,17.10
2019-01-14T10:17:36.352Z,17.00
2019-01-14T10:20:05.016Z,17.10
2019-01-14T10:22:33.050Z,17.10
2019-01-14T10:25:01.572Z,17.00
2019-01-14T10:27:42.312Z,17.00
2019-01-14T10:30:12.186Z,17.00
2019-01-14T10:32:40.205Z,17.00
2019-01-14T10:35:08.287Z,17.00
2019-01-14T10:37:36.361Z,17.00
2019-01-14T10:40:04.864Z,17.00
2019-01-14T10:43:22.961Z,17.00
2019-01-14T10:45:51.010Z,17.00
2019-01-14T10:48:19.030Z,17.00
2019-01-14T10:50:47.033Z,17.00
2019-01-14T10:53:15.628Z,17.00
2019-01-14T10:55:46.549Z,17.00
2019-01-14T10:58:15.956Z,17.00
2019-01-14T11:00:44.197Z,17.00
2019-01-14T11:03:13.335Z,17.00
2019-01-14T11:05:41.702Z,17.00
2019-01-14T11:08:09.842Z,17.00
2019-01-14T11:10:38.203Z,17.00
2019-01-14T11:13:06.324Z,17.00
2019-01-14T11:15:36.494Z,17.00
2019-01-14T11:18:07.804Z,17.00
2019-01-14T11:20:50.898Z,17.00
2019-01-14T11:23:19.039Z,17.00
2019-01-14T11:26:00.022Z,17.00
2019-01-14T11:28:43.779Z,17.00
2019-01-14T11:31:18.908Z,17.00
2019-01-14T11:34:19.138Z,17.00
2019-01-14T11:36:52.862Z,17.00
2019-01-14T11:39:31.894Z,16.90
2019-01-14T11:42:27.004Z,17.00
2019-01-14T11:45:11.248Z,17.00
2019-01-14T11:51:00.819Z,16.90
2019-01-14T11:53:37.341Z,17.00
2019-01-14T11:59:54.035Z,17.00
2019-01-14T12:02:27.303Z,16.90
2019-01-14T12:04:55.824Z,16.90
2019-01-14T12:07:36.697Z,16.90
2019-01-14T12:10:10.480Z,16.90
2019-01-14T12:12:55.788Z,16.90
2019-01-14T12:15:52.299Z,16.90
2019-01-14T12:18:47.130Z,16.90
2019-01-14T12:32:01.002Z,16.90
2019-01-14T14:03:20.796Z,16.70
2019-01-14T14:05:48.980Z,16.70
2019-01-14T14:08:20.789Z,16.70
2019-01-14T14:10:48.925Z,16.70
2019-01-14T14:13:16.938Z,16.70
2019-01-14T14:15:44.964Z,16.70
2019-01-14T14:18:12.985Z,16.70
2019-01-14T14:20:43.066Z,16.70
2019-01-14T14:23:11.000Z,16.70
2019-01-14T14:25:41.212Z,16.70
2019-01-14T14:28:09.360Z,16.70
2019-01-14T14:30:37.903Z,16.70
2019-01-14T14:33:06.006Z,16.70
2019-01-14T14:35:34.456Z,16.70
2019-01-14T14:38:02.672Z,16.70
2019-01-14T14:40:30.720Z,16.70
2019-01-14T14:42:58.800Z,16.70
2019-01-14T14:45:26.751Z,16.70
2019-01-14T14:47:54.738Z,16.70
2019-01-14T14:50:23.029Z,16.70
2019-01-14T14:52:51.506Z,16.70
2019-01-14T14:55:19.544Z,16.70
2019-01-14T14:57:47.872Z,16.70
2019-01-14T15:00:17.029Z,16.70
2019-01-14T15:02:45.093Z,16.70
2019-01-14T15:05:13.381Z,16.70
2019-01-14T15:07:41.315Z,16.70
2019-01-14T15:10:10.364Z,16.70
2019-01-14T15:12:38.519Z,16.70
2019-01-14T15:15:06.827Z,16.70
2019-01-14T15:17:35.202Z,16.70
2019-01-14T15:20:03.409Z,16.70
2019-01-14T15:22:31.625Z,16.70
2019-01-14T15:24:59.832Z,16.70
2019-01-14T15:27:30.147Z,16.70
2019-01-14T15:29:58.332Z,16.70
2019-01-14T15:32:26.593Z,16.70
2019-01-14T15:34:54.808Z,16.70
2019-01-14T15:37:25.280Z,16.70
2019-01-14T15:39:53.409Z,16.70
2019-01-14T15:42:21.430Z,16.70
2019-01-14T15:44:49.513Z,16.60
2019-01-14T15:47:17.719Z,16.70
2019-01-14T15:49:45.992Z,16.60
2019-01-14T15:52:14.274Z,16.60
2019-01-14T15:54:42.442Z,16.70
2019-01-14T15:57:10.635Z,16.60
2019-01-14T15:59:38.787Z,16.60
2019-01-14T16:02:06.922Z,16.60
2019-01-14T16:04:35.103Z,16.60
2019-01-14T16:07:03.222Z,16.60
2019-01-14T16:09:31.328Z,16.60
2019-01-14T16:11:59.838Z,16.60
2019-01-14T16:14:27.913Z,16.70
2019-01-14T16:16:56.233Z,16.60
2019-01-14T16:19:24.246Z,16.60
2019-01-14T16:21:52.456Z,16.60
2019-01-14T16:24:20.523Z,16.60
2019-01-14T16:26:48.726Z,16.60
2019-01-14T16:29:16.683Z,16.60
2019-01-14T16:31:44.774Z,16.60
2019-01-14T16:34:13.015Z,16.60
2019-01-14T16:36:41.266Z,16.70
2019-01-14T16:39:10.968Z,16.70
2019-01-14T16:41:39.344Z,16.70
2019-01-14T16:44:10.014Z,16.70
2019-01-14T16:46:38.390Z,16.70
2019-01-14T16:49:06.582Z,16.70
2019-01-14T16:51:34.635Z,16.80
2019-01-14T16:54:02.659Z,16.80
2019-01-14T16:56:31.548Z,16.80
2019-01-14T16:58:59.524Z,16.80
2019-01-14T17:01:29.106Z,16.80
2019-01-14T17:03:57.173Z,16.90
2019-01-14T17:06:25.139Z,16.80
2019-01-14T17:08:53.181Z,16.80
2019-01-14T17:11:21.399Z,16.90
2019-01-14T17:13:49.317Z,16.90
2019-01-14T17:16:17.412Z,16.90
2019-01-14T17:18:45.401Z,16.90
2019-01-14T17:21:20.998Z,16.90
2019-01-14T17:24:12.332Z,16.90
2019-01-14T17:26:44.235Z,17.00
2019-01-14T17:30:51.932Z,17.00
2019-01-14T17:36:20.666Z,17.00
2019-01-14T17:52:42.372Z,16.90
2019-01-14T17:55:38.848Z,17.00
2019-01-14T17:58:29.728Z,16.90
2019-01-14T18:04:54.619Z,17.00
2019-01-14T18:15:07.842Z,17.00
2019-01-14T18:18:14.829Z,17.00
2019-01-14T18:23:52.024Z,17.00
2019-01-14T18:26:33.724Z,17.00
2019-01-14T18:29:04.688Z,17.00
2019-01-14T18:31:45.325Z,17.00
2019-01-14T18:34:37.644Z,17.00
2019-01-14T18:37:14.060Z,17.00
2019-01-14T18:42:48.099Z,16.90
2019-01-14T18:45:25.395Z,16.90
2019-01-14T18:47:58.302Z,16.90
2019-01-14T18:50:35.060Z,16.90
2019-01-14T18:53:16.050Z,16.90
2019-01-14T18:55:49.921Z,16.90
2019-01-14T18:59:00.143Z,16.90
2019-01-14T19:12:58.157Z,17.00
2019-01-14T19:19:23.571Z,17.00
2019-01-14T19:28:55.560Z,17.00
2019-01-14T19:35:17.151Z,16.90
2019-01-14T19:42:12.323Z,17.00
2019-01-14T19:45:01.582Z,17.00
2019-01-14T19:45:30.653Z,17.00
2019-01-14T19:48:02.924Z,16.90
2019-01-14T20:22:37.996Z,16.90
2019-01-14T20:25:41.912Z,16.90
2019-01-14T20:31:29.314Z,16.90
2019-01-14T20:37:31.980Z,16.90
2019-01-14T20:47:09.688Z,16.80
2019-01-14T20:53:05.573Z,16.90
2019-01-14T20:55:41.016Z,16.80
2019-01-14T20:58:40.521Z,16.80
2019-01-14T21:01:16.456Z,16.80
2019-01-14T21:04:00.628Z,16.70
2019-01-14T21:06:41.680Z,16.70
2019-01-14T21:09:22.362Z,16.70
2019-01-14T21:12:40.764Z,16.70
2019-01-14T21:16:07.436Z,16.70
2019-01-14T21:18:59.737Z,16.70
2019-01-14T21:21:54.108Z,16.70
2019-01-14T21:24:25.988Z,16.70
2019-01-14T21:26:54.192Z,16.70
2019-01-14T21:29:26.009Z,16.70
2019-01-14T21:32:09.966Z,16.70
2019-01-14T21:34:49.938Z,16.70
2019-01-14T21:37:38.601Z,16.70
2019-01-14T21:40:10.091Z,16.70
2019-01-14T21:42:41.434Z,16.70
2019-01-14T21:45:13.618Z,16.70
2019-01-14T21:47:51.567Z,16.70
2019-01-14T21:50:30.005Z,16.70
2019-01-14T21:53:00.409Z,16.70
2019-01-14T21:55:37.839Z,16.70
2019-01-14T21:58:15.753Z,16.70
2019-01-14T22:00:53.602Z,16.70
2019-01-14T22:03:25.901Z,16.60
2019-01-14T22:05:59.602Z,16.70
2019-01-14T22:08:38.730Z,16.60
2019-01-14T22:11:11.757Z,16.70
2019-01-14T22:13:45.071Z,16.60
2019-01-14T22:16:23.570Z,16.60
2019-01-14T22:18:57.982Z,16.60
2019-01-14T22:21:31.497Z,16.60
2019-01-14T22:24:40.575Z,16.60
2019-01-14T22:27:08.516Z,16.60
2019-01-14T22:30:07.984Z,16.60
2019-01-14T22:33:24.991Z,16.60
2019-01-14T22:36:12.530Z,16.60
2019-01-14T22:39:03.464Z,16.60
2019-01-14T22:41:53.399Z,16.60
2019-01-14T22:44:49.191Z,16.60
2019-01-14T22:47:21.828Z,16.60
2019-01-14T22:50:08.094Z,16.60
2019-01-14T22:52:42.780Z,16.60
2019-01-14T22:55:23.901Z,16.60
2019-01-14T22:58:23.618Z,16.60
2019-01-14T23:01:21.303Z,16.60
2019-01-14T23:07:09.927Z,16.60
2019-01-14T23:09:46.100Z,16.60
2019-01-14T23:12:26.483Z,16.60
2019-01-14T23:15:17.732Z,16.60
2019-01-14T23:18:20.237Z,16.60
2019-01-14T23:21:16.502Z,16.60
2019-01-14T23:23:45.785Z,16.60
2019-01-14T23:26:26.557Z,16.60
2019-01-14T23:29:11.937Z,16.60
2019-01-14T23:31:49.228Z,16.60
2019-01-14T23:34:34.200Z,16.60
2019-01-14T23:37:09.564Z,16.60
2019-01-14T23:39:38.383Z,16.60
2019-01-14T23:42:06.525Z,16.60
2019-01-14T23:44:52.889Z,16.60
2019-01-14T23:47:37.689Z,16.50
2019-01-14T23:50:05.963Z,16.50
2019-01-14T23:52:34.049Z,16.60
2019-01-14T23:55:08.571Z,16.60
2019-01-14T23:57:38.245Z,16.60
